Time;durP1;ratioP1;P1;durP2;ratioP2;P2;SDS_P1;SDS_P2;PMS_P1;PMS_P2;Temp;Humidity;BMP_temperature;BMP_pressure;BME280_temperature;BME280_humidity;BME280_pressure;Samples;Min_cycle;Max_cycle;Signal;HPM_P1;HPM_P2
2021/07/19 00:01:26;;;;;;;5.53;4.40;;;17.20;99.90;;;;;;5093997;28;20492;-65
2021/07/19 00:03:52;;;;;;;7.40;4.70;;;17.20;99.90;;;;;;5093528;28;20836;-65
2021/07/19 00:06:19;;;;;;;6.60;5.00;;;17.10;99.90;;;;;;5093477;28;21040;-65
2021/07/19 00:08:46;;;;;;;6.37;4.63;;;17.10;99.90;;;;;;5093547;28;20544;-64
2021/07/19 00:11:14;;;;;;;8.00;5.10;;;17.20;99.90;;;;;;5093102;28;20968;-65
2021/07/19 00:13:41;;;;;;;6.50;4.70;;;17.10;99.90;;;;;;5093351;28;20462;-65
2021/07/19 00:16:09;;;;;;;7.10;5.30;;;17.00;99.90;;;;;;5093463;28;20438;-64
2021/07/19 00:18:36;;;;;;;6.07;4.93;;;17.00;99.90;;;;;;5093187;28;21039;-65
2021/07/19 00:21:05;;;;;;;8.13;5.50;;;17.00;99.90;;;;;;5093013;28;20886;-64
2021/07/19 00:23:32;;;;;;;6.73;5.03;;;17.00;99.90;;;;;;5093102;28;20547;-65
2021/07/19 00:25:58;;;;;;;7.60;4.73;;;16.90;99.90;;;;;;5092994;28;20817;-65
2021/07/19 00:28:25;;;;;;;6.40;5.20;;;16.90;99.90;;;;;;5093210;28;20830;-65
2021/07/19 00:30:52;;;;;;;6.73;5.20;;;16.90;99.90;;;;;;5092861;28;20478;-65
2021/07/19 00:33:21;;;;;;;6.27;5.17;;;17.00;99.90;;;;;;5093160;28;20506;-64
2021/07/19 00:35:47;;;;;;;7.50;4.50;;;17.00;99.90;;;;;;5093069;28;20450;-65
2021/07/19 00:38:14;;;;;;;8.33;4.90;;;17.10;99.90;;;;;;5092804;28;20834;-65
2021/07/19 00:40:41;;;;;;;7.30;4.40;;;17.10;99.90;;;;;;5092504;28;20461;-65
2021/07/19 00:43:09;;;;;;;5.53;4.53;;;17.10;99.90;;;;;;5092788;28;20477;-65
2021/07/19 00:45:36;;;;;;;6.07;5.00;;;17.10;99.90;;;;;;5093044;28;20936;-65
2021/07/19 00:48:05;;;;;;;8.63;5.00;;;17.00;99.90;;;;;;5092791;28;20458;-65
2021/07/19 00:50:36;;;;;;;7.73;5.30;;;17.00;99.90;;;;;;5092354;28;20446;-65
2021/07/19 00:53:07;;;;;;;6.73;4.40;;;16.90;99.90;;;;;;5092358;28;20470;-65
2021/07/19 00:55:36;;;;;;;5.70;4.30;;;16.90;99.90;;;;;;5092875;28;20499;-65
2021/07/19 00:58:06;;;;;;;6.77;5.00;;;16.80;99.90;;;;;;5092772;28;20576;-65
2021/07/19 01:00:38;;;;;;;6.50;5.40;;;16.70;99.90;;;;;;5092322;28;20450;-64
2021/07/19 01:03:07;;;;;;;5.80;5.00;;;16.60;99.90;;;;;;5092466;28;20860;-65
2021/07/19 01:05:38;;;;;;;6.43;5.57;;;16.50;99.90;;;;;;5092529;28;20442;-64
2021/07/19 01:08:06;;;;;;;5.90;5.13;;;16.40;99.90;;;;;;5092502;28;20461;-65
2021/07/19 01:10:35;;;;;;;7.37;4.90;;;16.40;99.90;;;;;;5092134;28;20545;-64
2021/07/19 01:13:03;;;;;;;6.90;5.60;;;16.30;99.90;;;;;;5092320;28;20469;-64
2021/07/19 01:15:32;;;;;;;7.10;6.03;;;16.40;99.90;;;;;;5092127;28;20442;-65
2021/07/19 01:17:59;;;;;;;7.67;5.27;;;16.40;99.90;;;;;;5092255;28;20806;-65
2021/07/19 01:20:30;;;;;;;6.67;5.47;;;16.40;99.90;;;;;;5092308;28;20450;-65
2021/07/19 01:23:16;;;;;;;7.03;5.27;;;16.40;99.90;;;;;;5092131;28;20875;-64
2021/07/19 01:26:23;;;;;;;5.70;5.03;;;16.40;99.90;;;;;;5092171;28;20457;-64
2021/07/19 01:28:52;;;;;;;8.23;6.00;;;16.40;99.90;;;;;;5078973;28;20533;-64
2021/07/19 01:31:24;;;;;;;5.53;4.63;;;16.30;99.90;;;;;;5092078;28;20448;-65
2021/07/19 01:33:57;;;;;;;7.47;5.43;;;16.20;99.90;;;;;;5092364;28;20474;-65
2021/07/19 01:36:41;;;;;;;6.87;5.27;;;16.20;99.90;;;;;;5092149;28;20820;-65
2021/07/19 01:39:09;;;;;;;8.80;6.10;;;16.20;99.90;;;;;;5091753;28;20526;-65
2021/07/19 01:41:37;;;;;;;5.90;5.30;;;16.20;99.90;;;;;;5092402;28;20505;-65
2021/07/19 01:44:07;;;;;;;8.43;5.53;;;16.30;99.90;;;;;;5091971;28;20520;-65
2021/07/19 01:46:35;;;;;;;7.17;5.13;;;16.30;99.90;;;;;;5091743;28;20438;-65
2021/07/19 01:49:04;;;;;;;7.67;5.67;;;16.30;99.90;;;;;;5091141;28;20816;-65
2021/07/19 01:51:32;;;;;;;6.80;5.53;;;16.20;99.90;;;;;;5091855;28;20503;-65
2021/07/19 01:54:00;;;;;;;10.33;5.60;;;16.20;99.90;;;;;;5090543;28;20462;-66
2021/07/19 01:56:29;;;;;;;7.50;6.50;;;16.20;99.90;;;;;;5091744;28;20952;-65
2021/07/19 01:58:59;;;;;;;6.10;4.70;;;16.20;99.90;;;;;;5091368;28;20450;-65
2021/07/19 02:01:28;;;;;;;5.30;4.80;;;16.20;99.90;;;;;;5091434;28;20482;-65
2021/07/19 02:03:56;;;;;;;8.13;4.70;;;16.20;99.90;;;;;;5091566;28;20465;-65
2021/07/19 02:06:25;;;;;;;6.57;5.10;;;16.20;99.90;;;;;;5091480;28;20524;-66
2021/07/19 02:08:55;;;;;;;8.50;6.40;;;16.20;99.90;;;;;;5091336;28;20446;-65
2021/07/19 02:11:27;;;;;;;6.63;5.50;;;16.20;99.90;;;;;;5091438;28;20453;-65
2021/07/19 02:13:54;;;;;;;7.00;5.70;;;16.20;99.90;;;;;;5091192;28;20512;-65
2021/07/19 02:16:22;;;;;;;6.80;6.10;;;16.30;99.90;;;;;;5091323;28;20456;-65
2021/07/19 02:18:51;;;;;;;8.43;5.03;;;16.30;99.90;;;;;;5091118;28;20450;-65
2021/07/19 02:21:19;;;;;;;5.57;4.73;;;16.20;99.90;;;;;;5090390;28;20456;-65
2021/07/19 02:23:47;;;;;;;7.10;5.87;;;16.20;99.90;;;;;;5090798;28;21071;-65
2021/07/19 02:26:14;;;;;;;8.47;6.07;;;16.10;99.90;;;;;;5091238;28;20453;-65
2021/07/19 02:28:42;;;;;;;7.03;5.93;;;16.10;99.90;;;;;;5091819;28;20533;-65
2021/07/19 02:31:10;;;;;;;8.10;5.70;;;16.00;99.90;;;;;;5090794;28;20446;-65
2021/07/19 02:33:38;;;;;;;7.30;5.90;;;16.00;99.90;;;;;;5091123;28;20477;-65
2021/07/19 02:36:08;;;;;;;7.80;5.53;;;15.90;99.90;;;;;;5090818;28;20812;-65
2021/07/19 02:38:36;;;;;;;10.93;5.77;;;15.90;99.90;;;;;;5090664;28;20538;-65
2021/07/19 02:41:05;;;;;;;6.93;5.20;;;15.90;99.90;;;;;;5090384;28;20464;-65
2021/07/19 02:43:32;;;;;;;7.50;5.60;;;15.90;99.90;;;;;;5090736;28;20493;-66
2021/07/19 02:46:00;;;;;;;6.20;5.27;;;15.80;99.90;;;;;;5090829;28;20446;-65
2021/07/19 02:48:29;;;;;;;7.70;5.80;;;15.80;99.90;;;;;;5090663;28;20464;-65
2021/07/19 02:51:00;;;;;;;7.97;5.13;;;15.80;99.90;;;;;;5090167;28;20491;-68
2021/07/19 02:53:31;;;;;;;7.83;5.30;;;15.80;99.90;;;;;;5090213;28;21035;-65
2021/07/19 02:55:59;;;;;;;9.50;5.20;;;15.70;99.90;;;;;;5090680;28;20446;-65
2021/07/19 02:58:27;;;;;;;7.30;6.10;;;15.60;99.90;;;;;;5090503;28;20454;-65
2021/07/19 03:00:54;;;;;;;6.87;5.80;;;15.60;99.90;;;;;;5090196;28;20442;-65
2021/07/19 03:03:25;;;;;;;6.53;5.77;;;15.60;99.90;;;;;;5090278;28;20488;-65
2021/07/19 03:05:58;;;;;;;6.90;5.50;;;15.60;99.90;;;;;;5090044;28;20442;-65
2021/07/19 03:08:26;;;;;;;6.20;5.20;;;15.60;99.90;;;;;;5090310;28;20529;-65
2021/07/19 03:10:55;;;;;;;5.97;4.83;;;15.60;99.90;;;;;;5090018;28;20434;-65
2021/07/19 03:13:25;;;;;;;6.13;5.53;;;15.50;99.90;;;;;;5090037;28;20461;-65
2021/07/19 03:15:52;;;;;;;8.80;5.73;;;15.60;99.90;;;;;;5090345;28;20603;-65
2021/07/19 03:18:20;;;;;;;6.13;5.53;;;15.60;99.90;;;;;;5090151;28;20446;-65
2021/07/19 03:20:49;;;;;;;7.90;6.20;;;15.50;99.90;;;;;;5089768;28;20437;-65
2021/07/19 03:23:18;;;;;;;12.60;5.87;;;15.50;99.90;;;;;;5090052;28;20573;-65
2021/07/19 03:25:46;;;;;;;10.50;5.70;;;15.50;99.90;;;;;;5090322;28;20444;-65
2021/07/19 03:28:17;;;;;;;7.83;5.53;;;15.60;99.90;;;;;;5090310;28;20525;-65
2021/07/19 03:30:45;;;;;;;14.20;6.00;;;15.60;99.90;;;;;;5089914;28;20438;-65
2021/07/19 03:33:12;;;;;;;8.20;5.97;;;15.50;99.90;;;;;;5089848;28;20538;-65
2021/07/19 03:35:40;;;;;;;8.80;6.27;;;15.50;99.90;;;;;;5090123;28;20444;-65
2021/07/19 03:38:08;;;;;;;6.10;5.50;;;15.40;99.90;;;;;;5090343;28;20453;-64
2021/07/19 03:40:37;;;;;;;6.00;5.17;;;15.40;99.90;;;;;;5089654;28;20438;-65
2021/07/19 03:43:04;;;;;;;8.10;6.17;;;15.40;99.90;;;;;;5090027;28;20556;-65
2021/07/19 03:45:34;;;;;;;10.10;6.80;;;15.40;99.90;;;;;;5090140;28;20815;-65
2021/07/19 03:48:02;;;;;;;7.73;6.43;;;15.50;99.90;;;;;;5090373;28;20434;-65
2021/07/19 03:50:31;;;;;;;8.37;6.13;;;15.40;99.90;;;;;;5090046;28;20453;-64
2021/07/19 03:52:58;;;;;;;8.50;5.40;;;15.40;99.90;;;;;;5090284;28;20453;-64
2021/07/19 03:55:26;;;;;;;6.93;6.00;;;15.50;99.90;;;;;;5090310;28;20442;-66
2021/07/19 03:57:54;;;;;;;10.60;5.97;;;15.40;99.90;;;;;;5090003;28;20526;-66
2021/07/19 04:00:22;;;;;;;6.87;5.63;;;15.50;99.90;;;;;;5089706;28;20448;-66
2021/07/19 04:02:53;;;;;;;8.20;5.80;;;15.40;99.90;;;;;;5089920;28;20480;-64
2021/07/19 04:05:21;;;;;;;7.93;6.43;;;15.40;99.90;;;;;;5089813;28;21244;-64
2021/07/19 04:07:49;;;;;;;8.33;6.47;;;15.40;99.90;;;;;;5089918;28;20442;-64
2021/07/19 04:10:21;;;;;;;7.60;6.27;;;15.40;99.90;;;;;;5089154;28;20876;-64
2021/07/19 04:12:50;;;;;;;8.00;6.00;;;15.40;99.90;;;;;;5090000;28;20797;-64
2021/07/19 04:15:17;;;;;;;7.80;5.27;;;15.40;99.90;;;;;;5089982;28;20446;-64
2021/07/19 04:17:47;;;;;;;7.23;6.13;;;15.50;99.90;;;;;;5092580;28;21094;-68
2021/07/19 04:20:18;;;;;;;8.80;6.60;;;15.60;99.90;;;;;;5093488;28;20445;-64
2021/07/19 04:22:45;;;;;;;10.83;6.30;;;15.60;99.90;;;;;;5093415;28;20480;-64
2021/07/19 04:25:14;;;;;;;7.27;5.97;;;15.60;99.90;;;;;;5093490;28;20552;-65
2021/07/19 04:27:43;;;;;;;8.60;7.57;;;15.60;99.90;;;;;;5093294;28;20509;-66
2021/07/19 04:30:12;;;;;;;8.33;6.90;;;15.50;99.90;;;;;;5092904;28;20434;-67
2021/07/19 04:32:40;;;;;;;9.63;7.07;;;15.60;99.90;;;;;;5092954;28;20545;-65
2021/07/19 04:35:13;;;;;;;7.50;6.33;;;15.60;99.90;;;;;;5092651;28;20458;-65
2021/07/19 04:37:41;;;;;;;9.23;6.70;;;15.60;99.90;;;;;;5092677;28;20491;-64
2021/07/19 04:40:09;;;;;;;8.50;6.53;;;15.70;99.90;;;;;;5092713;28;20513;-65
2021/07/19 04:42:39;;;;;;;8.40;6.30;;;15.80;99.90;;;;;;5092801;28;20850;-65
2021/07/19 04:45:07;;;;;;;8.70;6.30;;;15.80;99.90;;;;;;5092804;28;20798;-65
2021/07/19 04:47:34;;;;;;;7.53;5.80;;;15.90;99.90;;;;;;5092597;28;20438;-64
2021/07/19 04:50:01;;;;;;;8.03;6.40;;;15.90;99.90;;;;;;5092147;28;20984;-65
2021/07/19 04:52:29;;;;;;;8.77;6.67;;;16.00;99.90;;;;;;5092546;28;20927;-65
2021/07/19 04:54:59;;;;;;;7.60;6.40;;;15.90;99.90;;;;;;5092442;28;20472;-65
2021/07/19 04:57:27;;;;;;;8.43;6.40;;;16.00;99.90;;;;;;5092440;28;20447;-66
2021/07/19 04:59:56;;;;;;;11.07;6.70;;;16.00;99.90;;;;;;5091735;28;20430;-65
2021/07/19 05:02:28;;;;;;;7.70;6.23;;;16.10;99.90;;;;;;5091745;28;20569;-65
2021/07/19 05:04:58;;;;;;;6.77;6.07;;;16.20;99.90;;;;;;5082285;28;20477;-65
2021/07/19 05:07:30;;;;;;;8.60;6.60;;;16.30;99.90;;;;;;5072311;28;20446;-64
2021/07/19 05:10:00;;;;;;;9.00;6.87;;;16.40;99.90;;;;;;5085122;28;20487;-64
2021/07/19 05:12:27;;;;;;;8.10;6.70;;;16.60;99.90;;;;;;5086888;28;20501;-64
2021/07/19 05:14:55;;;;;;;7.53;6.27;;;16.70;99.90;;;;;;5087390;28;20455;-63
2021/07/19 05:17:22;;;;;;;10.17;6.80;;;16.90;99.90;;;;;;5091542;28;20867;-64
2021/07/19 05:19:50;;;;;;;9.10;6.20;;;17.20;99.90;;;;;;5090898;28;20988;-64
2021/07/19 05:22:17;;;;;;;9.77;6.40;;;17.30;99.90;;;;;;5091359;28;20848;-62
2021/07/19 05:24:45;;;;;;;7.80;6.10;;;17.50;99.90;;;;;;5091258;28;20545;-65
2021/07/19 05:27:15;;;;;;;9.53;5.43;;;17.70;99.90;;;;;;5091637;28;20892;-64
2021/07/19 05:29:43;;;;;;;9.13;6.30;;;17.90;99.90;;;;;;5091261;28;20446;-65
2021/07/19 05:32:10;;;;;;;9.47;5.43;;;18.00;99.90;;;;;;5093270;28;20450;-64
2021/07/19 05:34:37;;;;;;;6.50;5.20;;;18.10;99.90;;;;;;5091775;28;20488;-64
2021/07/19 05:37:05;;;;;;;6.30;5.70;;;18.10;99.90;;;;;;5091558;28;20446;-64
2021/07/19 05:39:32;;;;;;;10.43;6.30;;;18.00;99.90;;;;;;5091297;28;20450;-64
2021/07/19 05:41:59;;;;;;;9.87;6.47;;;18.10;99.90;;;;;;5091484;28;20445;-65
2021/07/19 05:44:27;;;;;;;6.80;5.97;;;17.90;99.90;;;;;;5091867;28;20481;-65
2021/07/19 05:46:54;;;;;;;6.47;5.77;;;17.80;99.90;;;;;;5091515;28;20454;-65
2021/07/19 05:49:21;;;;;;;6.83;6.13;;;17.80;99.90;;;;;;5091434;28;20442;-65
2021/07/19 05:51:48;;;;;;;8.20;6.90;;;17.90;99.90;;;;;;5091345;28;20529;-65
2021/07/19 05:54:15;;;;;;;7.83;5.93;;;17.90;99.90;;;;;;5089110;28;20466;-65
2021/07/19 05:56:42;;;;;;;8.03;6.70;;;18.00;99.90;;;;;;5089076;28;20952;-65
2021/07/19 05:59:09;;;;;;;7.80;6.23;;;18.20;99.90;;;;;;5090185;28;20452;-65
2021/07/19 06:01:37;;;;;;;7.00;6.30;;;18.20;99.90;;;;;;5090924;28;20442;-65
2021/07/19 06:04:04;;;;;;;7.83;5.43;;;18.30;99.90;;;;;;5087982;28;20571;-65
2021/07/19 06:06:32;;;;;;;13.93;6.83;;;18.40;99.90;;;;;;5090969;28;20446;-65
2021/07/19 06:08:59;;;;;;;7.33;6.30;;;18.50;99.90;;;;;;5089175;28;20457;-65
2021/07/19 06:11:26;;;;;;;9.33;6.10;;;18.50;99.90;;;;;;5090316;28;20453;-65
2021/07/19 06:13:53;;;;;;;8.43;6.27;;;18.70;99.90;;;;;;5090546;28;20622;-66
2021/07/19 06:16:20;;;;;;;7.33;6.17;;;18.70;99.90;;;;;;5090357;28;20525;-65
2021/07/19 06:18:48;;;;;;;9.63;7.10;;;18.80;99.90;;;;;;5090266;28;20828;-65
2021/07/19 06:21:15;;;;;;;9.60;5.87;;;18.80;99.90;;;;;;5089975;28;20533;-66
2021/07/19 06:23:42;;;;;;;7.67;6.47;;;18.90;99.90;;;;;;5090190;28;21034;-66
2021/07/19 06:26:11;;;;;;;6.33;5.53;;;19.00;99.90;;;;;;5090242;28;20528;-65
2021/07/19 06:28:38;;;;;;;6.73;5.77;;;19.10;99.90;;;;;;5090184;28;20856;-65
2021/07/19 06:31:05;;;;;;;8.33;6.07;;;19.20;99.90;;;;;;5090123;28;20785;-65
2021/07/19 06:33:32;;;;;;;9.93;6.73;;;19.30;99.90;;;;;;5090382;28;20473;-64
2021/07/19 06:36:00;;;;;;;7.60;6.10;;;19.40;99.90;;;;;;5090488;28;20454;-65
2021/07/19 06:38:27;;;;;;;10.03;6.47;;;19.50;99.90;;;;;;5090348;28;20461;-64
2021/07/19 06:40:54;;;;;;;6.70;6.00;;;19.60;99.90;;;;;;5089855;28;20442;-65
2021/07/19 06:43:20;;;;;;;7.33;5.90;;;19.60;99.90;;;;;;5090378;28;20928;-65
2021/07/19 06:45:47;;;;;;;6.00;5.40;;;19.70;99.90;;;;;;5090589;28;20457;-65
2021/07/19 06:48:15;;;;;;;6.87;6.17;;;19.80;99.90;;;;;;5090510;28;20451;-64
2021/07/19 06:50:42;;;;;;;7.17;6.00;;;19.90;99.90;;;;;;5089878;28;20504;-65
2021/07/19 06:53:10;;;;;;;7.47;6.20;;;19.90;99.90;;;;;;5090060;28;20458;-65
2021/07/19 06:55:37;;;;;;;7.53;5.27;;;20.10;99.90;;;;;;5090284;28;20539;-65
2021/07/19 06:58:04;;;;;;;8.63;7.13;;;20.10;99.90;;;;;;5086133;28;20533;-65
2021/07/19 07:00:31;;;;;;;9.03;6.23;;;20.20;99.90;;;;;;5081191;28;20446;-65
2021/07/19 07:02:58;;;;;;;9.47;5.90;;;20.40;99.90;;;;;;5089571;28;20962;-65
2021/07/19 07:05:25;;;;;;;10.50;7.00;;;20.50;99.90;;;;;;5089629;28;20474;-65
2021/07/19 07:07:51;;;;;;;7.57;5.63;;;20.60;99.90;;;;;;5089906;28;20450;-65
2021/07/19 07:10:20;;;;;;;11.33;6.73;;;20.70;99.90;;;;;;5076811;28;20468;-65
2021/07/19 07:12:46;;;;;;;7.30;5.43;;;20.80;99.90;;;;;;5068502;28;20967;-65
2021/07/19 07:15:14;;;;;;;9.13;5.80;;;20.90;99.90;;;;;;5068808;28;20451;-65
2021/07/19 07:17:42;;;;;;;7.93;5.30;;;20.90;99.90;;;;;;5069130;28;20558;-64
2021/07/19 07:20:10;;;;;;;9.10;6.50;;;21.00;99.90;;;;;;5069804;28;21003;-64
2021/07/19 07:22:37;;;;;;;8.53;5.23;;;21.00;99.90;;;;;;5069826;28;20439;-65
2021/07/19 07:25:06;;;;;;;6.27;5.03;;;21.10;99.90;;;;;;5069346;28;20493;-65
2021/07/19 07:27:35;;;;;;;9.03;5.77;;;21.30;99.90;;;;;;5069650;28;20451;-65
2021/07/19 07:30:03;;;;;;;8.80;5.13;;;21.40;99.90;;;;;;5069187;28;20454;-65
2021/07/19 07:32:30;;;;;;;9.10;6.13;;;21.50;99.90;;;;;;5069753;28;20479;-65
2021/07/19 07:34:57;;;;;;;6.20;5.13;;;21.70;99.90;;;;;;5069786;28;20465;-65
2021/07/19 07:37:24;;;;;;;7.83;5.70;;;21.80;99.90;;;;;;5069787;28;20451;-65
2021/07/19 07:39:51;;;;;;;12.33;5.20;;;21.90;99.90;;;;;;5069412;28;20447;-65
2021/07/19 07:42:18;;;;;;;8.57;7.20;;;22.00;99.90;;;;;;5069655;28;20451;-65
2021/07/19 07:44:46;;;;;;;6.50;5.10;;;22.10;99.90;;;;;;5069408;28;20479;-65
2021/07/19 07:47:13;;;;;;;6.73;5.07;;;22.20;99.90;;;;;;5069828;28;20443;-65
2021/07/19 07:49:41;;;;;;;6.43;5.50;;;22.20;99.90;;;;;;5069297;28;21121;-65
2021/07/19 07:52:11;;;;;;;6.30;4.97;;;22.20;99.90;;;;;;5071932;28;20443;-65
2021/07/19 07:54:38;;;;;;;4.87;4.37;;;22.20;99.90;;;;;;5073725;28;20466;-65
2021/07/19 07:57:05;;;;;;;6.03;5.43;;;22.30;99.90;;;;;;5073440;28;20447;-65
2021/07/19 07:59:32;;;;;;;7.77;4.87;;;22.30;99.90;;;;;;5073349;28;20445;-65
2021/07/19 08:02:00;;;;;;;6.17;5.40;;;22.40;99.90;;;;;;5073682;28;20529;-65
2021/07/19 08:04:28;;;;;;;7.47;4.13;;;22.40;99.90;;;;;;5073593;28;20489;-64
2021/07/19 08:06:55;;;;;;;7.03;5.00;;;22.50;99.90;;;;;;5073458;28;20956;-66
2021/07/19 08:09:22;;;;;;;6.53;4.53;;;22.60;99.90;;;;;;5073145;28;20466;-65
2021/07/19 08:11:49;;;;;;;5.73;5.00;;;22.80;99.90;;;;;;5073383;28;20446;-66
2021/07/19 08:14:16;;;;;;;7.20;5.13;;;23.00;99.90;;;;;;5073269;28;20538;-66
2021/07/19 08:16:43;;;;;;;6.10;4.80;;;23.00;99.90;;;;;;5072964;28;20961;-67
2021/07/19 08:19:12;;;;;;;5.50;4.67;;;23.20;99.90;;;;;;5072693;28;20454;-66
2021/07/19 08:21:41;;;;;;;6.30;5.20;;;23.20;99.90;;;;;;5073024;28;20940;-66
2021/07/19 08:24:08;;;;;;;5.97;4.40;;;23.30;99.90;;;;;;5072860;28;20493;-66
2021/07/19 08:26:36;;;;;;;4.90;4.40;;;23.40;99.90;;;;;;5072729;28;20526;-66
2021/07/19 08:29:05;;;;;;;6.50;5.23;;;23.50;99.90;;;;;;5072548;28;20486;-66
2021/07/19 08:31:33;;;;;;;5.70;4.50;;;23.60;99.90;;;;;;5072731;28;20451;-66
2021/07/19 08:34:00;;;;;;;6.90;4.70;;;23.70;99.90;;;;;;5072623;28;20490;-66
2021/07/19 08:36:28;;;;;;;5.37;4.50;;;23.80;99.90;;;;;;5073092;28;20449;-64
2021/07/19 08:38:55;;;;;;;6.50;5.33;;;23.80;99.90;;;;;;5072753;28;20983;-66
2021/07/19 08:41:22;;;;;;;5.53;4.50;;;23.90;99.90;;;;;;5072639;28;20990;-65
2021/07/19 08:43:49;;;;;;;7.10;5.03;;;24.00;99.90;;;;;;5072677;28;20483;-66
2021/07/19 08:46:17;;;;;;;8.30;5.50;;;24.10;99.90;;;;;;5072456;28;20453;-66
2021/07/19 08:48:45;;;;;;;7.20;4.87;;;24.10;99.90;;;;;;5072412;28;20466;-65
2021/07/19 08:51:13;;;;;;;6.30;5.20;;;24.10;99.90;;;;;;5072047;28;21123;-66
2021/07/19 08:53:42;;;;;;;7.77;5.20;;;24.20;99.90;;;;;;5072487;28;20927;-66
2021/07/19 08:56:10;;;;;;;9.57;5.47;;;24.20;99.90;;;;;;5072224;28;20529;-66
2021/07/19 08:58:37;;;;;;;5.87;4.80;;;24.30;99.90;;;;;;5072416;28;20537;-67
2021/07/19 09:01:05;;;;;;;6.10;4.60;;;24.30;99.90;;;;;;5072037;28;20439;-66
2021/07/19 09:03:32;;;;;;;8.83;4.80;;;24.40;99.90;;;;;;5071552;28;20562;-66
2021/07/19 09:05:59;;;;;;;6.90;5.23;;;24.50;99.90;;;;;;5072109;28;20451;-66
2021/07/19 09:08:26;;;;;;;5.80;5.00;;;24.70;99.90;;;;;;5072307;28;20471;-66
2021/07/19 09:10:54;;;;;;;8.07;4.60;;;24.80;99.90;;;;;;5071922;28;20538;-66
2021/07/19 09:13:22;;;;;;;6.00;5.03;;;24.80;99.90;;;;;;5072167;28;20506;-67
2021/07/19 09:15:58;;;;;;;8.00;5.53;;;24.90;99.90;;;;;;5072074;28;20822;-66
2021/07/19 09:18:25;;;;;;;6.03;4.80;;;24.90;99.90;;;;;;5071875;28;20455;-66
2021/07/19 09:20:52;;;;;;;6.87;4.80;;;25.10;99.90;;;;;;5071708;28;20509;-66
2021/07/19 09:23:27;;;;;;;6.53;5.03;;;25.30;99.90;;;;;;5071801;28;20558;-67
2021/07/19 09:25:55;;;;;;;8.20;4.77;;;25.30;99.90;;;;;;5071819;28;20437;-66
2021/07/19 09:28:29;;;;;;;6.93;5.40;;;25.60;99.90;;;;;;5072216;28;20450;-66
2021/07/19 09:31:04;;;;;;;7.73;4.90;;;25.80;99.90;;;;;;5071335;28;20451;-66
2021/07/19 09:33:31;;;;;;;8.87;5.50;;;25.90;99.90;;;;;;5071841;28;20557;-66
2021/07/19 09:36:01;;;;;;;6.17;4.50;;;26.10;99.90;;;;;;5071859;28;20445;-66
2021/07/19 09:38:30;;;;;;;6.03;5.10;;;26.40;99.90;;;;;;5071586;28;20442;-67
2021/07/19 09:41:00;;;;;;;11.23;5.57;;;26.20;99.90;;;;;;5071227;28;20451;-66
2021/07/19 09:43:29;;;;;;;7.30;5.10;;;26.10;99.90;;;;;;5071600;28;20467;-66
2021/07/19 09:45:58;;;;;;;5.93;4.90;;;26.50;99.90;;;;;;5071612;28;21023;-66
2021/07/19 09:48:25;;;;;;;10.17;5.27;;;26.60;99.90;;;;;;5071851;28;20447;-66
2021/07/19 09:50:53;;;;;;;9.93;5.37;;;26.50;99.90;;;;;;5071392;28;20478;-66
2021/07/19 09:53:32;;;;;;;5.10;4.60;;;26.10;99.90;;;;;;5071709;28;20463;-66
2021/07/19 09:56:12;;;;;;;6.73;4.97;;;25.70;99.90;;;;;;5071329;28;20467;-66
2021/07/19 09:58:40;;;;;;;7.83;5.13;;;25.40;99.90;;;;;;5071433;28;20447;-66
2021/07/19 10:01:06;;;;;;;8.87;4.60;;;25.30;99.90;;;;;;5071044;28;20447;-67
2021/07/19 10:03:33;;;;;;;5.70;4.80;;;26.10;99.90;;;;;;5071200;28;21000;-66
2021/07/19 10:06:09;;;;;;;6.80;4.80;;;27.10;99.90;;;;;;5071084;28;20489;-65
2021/07/19 10:08:36;;;;;;;4.63;4.13;;;28.00;99.90;;;;;;5070894;28;20453;-66
2021/07/19 10:11:14;;;;;;;6.40;4.70;;;27.90;99.90;;;;;;5070640;28;20982;-66
2021/07/19 10:13:48;;;;;;;7.00;3.90;;;27.40;99.90;;;;;;5070181;28;20524;-66
2021/07/19 10:16:15;;;;;;;5.37;4.10;;;26.70;99.90;;;;;;5070762;28;20820;-66
2021/07/19 10:18:43;;;;;;;8.10;4.57;;;26.20;99.90;;;;;;5070618;28;20454;-66
2021/07/19 10:21:10;;;;;;;8.57;4.27;;;26.30;99.90;;;;;;5070521;28;20451;-65
2021/07/19 10:23:39;;;;;;;7.10;3.90;;;27.00;99.90;;;;;;5070922;28;20470;-66
2021/07/19 10:26:07;;;;;;;5.63;4.33;;;28.10;99.90;;;;;;5070532;28;20509;-66
2021/07/19 10:28:34;;;;;;;4.40;3.20;;;28.90;99.90;;;;;;5070328;28;20447;-66
2021/07/19 10:31:02;;;;;;;4.07;3.50;;;29.90;99.90;;;;;;5070146;28;20873;-66
2021/07/19 10:33:29;;;;;;;5.20;4.50;;;30.00;97.20;;;;;;5070278;28;20458;-66
2021/07/19 10:35:59;;;;;;;4.37;3.43;;;30.00;98.40;;;;;;5070423;28;20443;-65
2021/07/19 10:38:29;;;;;;;4.80;3.47;;;30.40;97.40;;;;;;5070423;28;20537;-66
2021/07/19 10:40:58;;;;;;;5.67;3.53;;;30.20;96.90;;;;;;5070063;28;20451;-66
2021/07/19 10:43:28;;;;;;;4.90;3.10;;;31.00;96.40;;;;;;5070165;28;20467;-67
2021/07/19 10:45:56;;;;;;;5.60;3.07;;;31.70;94.30;;;;;;5069919;28;20482;-66
2021/07/19 10:48:27;;;;;;;4.07;3.13;;;31.90;94.60;;;;;;5070283;28;20831;-65
2021/07/19 10:50:57;;;;;;;4.87;3.40;;;31.90;93.20;;;;;;5069926;28;20542;-65
2021/07/19 10:53:24;;;;;;;7.40;4.33;;;30.90;93.40;;;;;;5070193;28;20467;-65
2021/07/19 10:56:02;;;;;;;4.47;2.97;;;30.20;94.20;;;;;;5070266;28;21022;-65
2021/07/19 10:58:40;;;;;;;5.07;3.30;;;30.60;96.50;;;;;;5069883;28;20443;-65
2021/07/19 11:01:19;;;;;;;4.30;3.33;;;31.00;93.70;;;;;;5069876;28;20453;-66
2021/07/19 11:03:48;;;;;;;5.83;3.50;;;30.50;94.50;;;;;;5070021;28;20459;-65
2021/07/19 11:06:16;;;;;;;7.10;3.80;;;30.30;94.90;;;;;;5069865;28;20576;-66
2021/07/19 11:08:49;;;;;;;4.13;3.60;;;30.60;95.40;;;;;;5069755;28;20461;-66
2021/07/19 11:11:27;;;;;;;5.53;3.77;;;31.00;94.10;;;;;;5069564;28;20938;-66
2021/07/19 11:13:56;;;;;;;5.90;4.03;;;31.20;95.30;;;;;;5069860;28;20463;-66
2021/07/19 11:16:24;;;;;;;5.70;3.20;;;31.40;94.80;;;;;;5069832;28;20447;-66
2021/07/19 11:18:57;;;;;;;4.20;3.47;;;31.20;92.70;;;;;;5069697;28;20465;-66
2021/07/19 11:21:26;;;;;;;4.80;3.57;;;30.70;93.60;;;;;;5069669;28;20542;-66
2021/07/19 11:23:54;;;;;;;6.20;3.97;;;29.90;94.20;;;;;;5069917;28;20506;-66
2021/07/19 11:26:23;;;;;;;7.03;4.10;;;28.80;95.90;;;;;;5074074;28;20478;-66
2021/07/19 11:28:50;;;;;;;4.90;3.40;;;28.20;96.30;;;;;;5076457;28;20446;-66
2021/07/19 11:31:26;;;;;;;7.33;3.47;;;28.70;97.50;;;;;;5076272;28;20960;-66
2021/07/19 11:34:01;;;;;;;5.50;2.97;;;29.40;96.80;;;;;;5076374;28;20474;-66
2021/07/19 11:36:30;;;;;;;3.70;2.97;;;29.90;93.20;;;;;;5076858;28;20446;-65
2021/07/19 11:38:58;;;;;;;4.20;3.17;;;30.80;92.60;;;;;;5076285;28;20443;-64
2021/07/19 11:41:27;;;;;;;6.50;3.80;;;31.10;92.10;;;;;;5076187;28;20985;-67
2021/07/19 11:43:56;;;;;;;3.73;3.17;;;31.10;90.60;;;;;;5076462;28;21059;-66
2021/07/19 11:46:25;;;;;;;4.13;3.00;;;31.10;91.40;;;;;;5076097;28;20486;-66
2021/07/19 11:48:57;;;;;;;7.17;3.40;;;30.90;91.10;;;;;;5076299;28;20533;-64
2021/07/19 11:51:27;;;;;;;7.67;3.20;;;30.40;91.80;;;;;;5076086;28;20447;-66
2021/07/19 11:53:55;;;;;;;3.30;2.27;;;30.20;90.50;;;;;;5076107;28;20550;-66
2021/07/19 11:56:22;;;;;;;5.40;2.50;;;30.40;87.90;;;;;;5076093;28;20937;-66
2021/07/19 11:58:53;;;;;;;4.43;2.63;;;31.00;87.90;;;;;;5075924;28;20447;-66
2021/07/19 12:01:25;;;;;;;4.00;2.90;;;31.40;86.90;;;;;;5076016;28;20526;-66
2021/07/19 12:03:54;;;;;;;4.77;2.40;;;31.90;85.20;;;;;;5076116;28;20493;-66
2021/07/19 12:06:21;;;;;;;5.13;2.77;;;32.30;84.40;;;;;;5075964;28;20486;-65
2021/07/19 12:08:54;;;;;;;4.17;2.33;;;32.20;88.10;;;;;;5075945;28;20447;-65
2021/07/19 12:11:21;;;;;;;4.47;2.50;;;32.20;81.80;;;;;;5075767;28;20449;-65
2021/07/19 12:13:48;;;;;;;3.80;2.20;;;32.10;80.80;;;;;;5076105;28;20475;-65
2021/07/19 12:16:16;;;;;;;4.30;2.70;;;32.20;86.80;;;;;;5076056;28;20449;-63
2021/07/19 12:18:47;;;;;;;3.60;2.63;;;32.70;80.00;;;;;;5075456;28;20454;-63
2021/07/19 12:21:16;;;;;;;4.90;3.27;;;32.00;82.00;;;;;;5083716;28;20480;-63
2021/07/19 12:23:45;;;;;;;5.23;2.77;;;31.60;84.60;;;;;;5089017;28;20460;-64
2021/07/19 12:26:16;;;;;;;4.03;2.93;;;30.20;88.20;;;;;;5083721;28;20492;-66
2021/07/19 12:28:57;;;;;;;4.73;2.50;;;29.20;89.20;;;;;;5080725;28;20481;-64
2021/07/19 12:31:30;;;;;;;3.80;3.00;;;28.90;90.50;;;;;;5090672;28;20441;-64
2021/07/19 12:34:01;;;;;;;6.40;3.10;;;28.50;90.90;;;;;;5092631;28;20517;-66
2021/07/19 12:36:28;;;;;;;3.80;2.90;;;29.00;91.30;;;;;;5094051;28;20437;-65
2021/07/19 12:38:55;;;;;;;4.70;2.80;;;30.20;89.40;;;;;;5074318;28;20443;-64
2021/07/19 12:41:24;;;;;;;4.30;3.03;;;31.10;87.60;;;;;;5080145;28;20963;-65
2021/07/19 12:43:51;;;;;;;4.90;3.00;;;32.00;85.00;;;;;;5089160;28;20462;-65
2021/07/19 12:46:18;;;;;;;3.93;2.83;;;33.00;85.10;;;;;;5083221;28;20495;-64
2021/07/19 12:48:47;;;;;;;4.53;3.00;;;33.10;79.60;;;;;;5088952;28;20446;-65
2021/07/19 12:51:15;;;;;;;3.63;2.83;;;32.40;83.50;;;;;;5082245;28;20556;-64
2021/07/19 12:53:42;;;;;;;7.73;5.07;;;33.10;88.10;;;;;;5079204;28;20558;-64